Goblesville, Indiana
Current Conditions -  °F | °C
As of 2:55 AM on Monday 24 Nov 2014 (Local Time) from KHHG Reporting Station
Overcast Overcast  
Wind Chill: 54°   Ceiling: 1100
Heat Index: 54°   Visibility: 10mi
Dew Point: 52°   Wind: 14mph
Humidity: 94%   Direction: 230°SW
Pressure: 29.16"   Gusts: 23mph
Location:  40.9238°N, 85.5001°W
Report Text: KHHG 240755Z AUTO 23012G20KT 10SM OVC011 12/11 A2916 RMK AO2 P0001 T01200111
Loading
Personal Weather Stations






























Interactive Weather Map New forecast layout! Learn more

10-Day Weather Forecast

Advertisements
Track Severe Weather on mobile